This is the latest recevied weather packets stored in our database for station/object PA1CD-13. If no packets are shown the sender has not sent any weather packets the latest 1 day(s).
| Time | Temp. | Humidity | Pressure | Rain* | Wind** | Luminosity | Snow |
|---|---|---|---|---|---|---|---|
| 1836274797 | 17.78° C | 88% | 1011.3 hPa | 0 mm | 2.68 m/s, 0° | 0 W/m² | - |
| 1836274678 | 17.78° C | 88% | 1011.4 hPa | 0 mm | 1.79 m/s, 0° | 0 W/m² | - |
| 1836274557 | 18.33° C | 87% | 1011.5 hPa | 0 mm | 1.79 m/s, 0° | 0 W/m² | - |
| 1836274528 | 17.78° C | 88% | 1011.3 hPa | 0 mm | 1.79 m/s, 0° | 0 W/m² | - |
| 1836274437 | 18.33° C | 87% | 1011.5 hPa | 0 mm | 1.79 m/s, 0° | 0 W/m² | - |
| 1836274406 | 17.78° C | 88% | 1011.3 hPa | 0 mm | 2.24 m/s, 0° | 0 W/m² | - |
| 1836274317 | 18.33° C | 87% | 1011.4 hPa | 0 mm | 1.34 m/s, 0° | 0 W/m² | - |
| 1836274288 | 17.78° C | 88% | 1011.4 hPa | 0 mm | 1.79 m/s, 0° | 0 W/m² | - |
| 1836274197 | 18.33° C | 87% | 1011.5 hPa | 0 mm | 1.79 m/s, 0° | 0 W/m² | - |
| 1836274168 | 17.78° C | 88% | 1011.3 hPa | 0 mm | 1.79 m/s, 0° | 0 W/m² | - |
| 1836274076 | 18.33° C | 86% | 1011.5 hPa | 0 mm | 0.89 m/s, 0° | 0 W/m² | - |
| 1836273956 | 18.33° C | 86% | 1011.4 hPa | 0 mm | 0 m/s | 0 W/m² | - |
| 1778031185 | 10° C | 1% | 1008.7 hPa | 0 mm | 0.45 m/s, 66° | 0 W/m² | - |
| 1778031066 | 10° C | 1% | 1008.7 hPa | 0 mm | 0.89 m/s, 59° | 0 W/m² | - |
| 1778030945 | 10° C | 1% | 1008.6 hPa | 0 mm | 0.89 m/s, 68° | 0 W/m² | - |
| 1778030826 | 10° C | 1% | 1008.7 hPa | 0 mm | 0.45 m/s, 0° | 0 W/m² | - |
| 1778030707 | 10° C | 1% | 1008.7 hPa | 0 mm | 0 m/s | 0 W/m² | - |
| 1778030585 | 10° C | 1% | 1008.8 hPa | 0 mm | 0 m/s | 0 W/m² | - |
| 1778030465 | 10° C | 1% | 1008.7 hPa | 0 mm | 0 m/s | 0 W/m² | - |
| 1778030345 | 10° C | 1% | 1008.7 hPa | 0 mm | 0 m/s | 0 W/m² | - |
| 1778030225 | 10° C | 1% | 1008.8 hPa | 0 mm | 0 m/s | 0 W/m² | - |
| 1778030106 | 10° C | 1% | 1008.8 hPa | 0 mm | 0.45 m/s, 75° | 0 W/m² | - |
| 1778029985 | 10° C | 1% | 1008.7 hPa | 0 mm | 0.45 m/s, 54° | 0 W/m² | - |
| 1778029865 | 10° C | 1% | 1008.7 hPa | 0 mm | 0 m/s | 0 W/m² | - |
| 1778029743 | 10° C | 1% | 1008.7 hPa | 0 mm | 0.45 m/s, 61° | 0 W/m² | - |
* Rain latest hour (hover to see other rain measurements)
** Current wind speed in m/s (hover to see current wind gust speed)